Time;durP1;ratioP1;P1;durP2;ratioP2;P2;SDS_P1;SDS_P2;PMS_P1;PMS_P2;Temp;Humidity;BMP_temperature;BMP_pressure;BME280_temperature;BME280_humidity;BME280_pressure;Samples;Min_cycle;Max_cycle;Signal;HPM_P1;HPM_P2
2020/12/08 00:03:48;;;;;;;60.95;29.55;;;;;;;0.14;86.78;98466.38;4112538;86;21330;-81
2020/12/08 00:09:50;;;;;;;61.40;27.73;;;;;;;0.10;86.79;98462.18;4109888;85;21218;-82
2020/12/08 00:15:51;;;;;;;57.10;27.55;;;;;;;0.19;87.00;98471.59;4108461;85;21358;-82
2020/12/08 00:21:53;;;;;;;60.65;28.95;;;;;;;0.20;86.71;98473.16;4110925;85;21325;-82
2020/12/08 00:27:54;;;;;;;61.20;28.53;;;;;;;0.18;86.77;98474.03;4101559;86;21581;-82
2020/12/08 00:33:56;;;;;;;56.93;27.57;;;;;;;0.14;86.79;98471.76;4092053;86;21703;-82
2020/12/08 00:39:58;;;;;;;62.30;26.90;;;;;;;0.15;86.89;98467.94;4096641;86;21174;-81
2020/12/08 00:45:59;;;;;;;60.88;27.22;;;;;;;0.11;86.94;98475.86;4083738;86;21234;-82
2020/12/08 00:52:00;;;;;;;50.95;25.92;;;;;;;0.14;87.03;98480.62;4099736;85;21663;-82
2020/12/08 00:58:03;;;;;;;63.52;28.50;;;;;;;-0.03;87.05;98453.72;4095997;85;21360;-81
2020/12/08 01:04:08;;;;;;;60.33;27.73;;;;;;;-0.03;87.05;98453.72;4103131;86;21206;-81
2020/12/08 01:10:08;;;;;;;60.08;26.77;;;;;;;0.09;87.05;98481.34;4094001;85;21195;-82
2020/12/08 01:16:11;;;;;;;57.60;26.47;;;;;;;0.06;87.09;98474.70;4099424;86;21151;-82
2020/12/08 01:22:13;;;;;;;56.93;26.10;;;;;;;0.01;87.11;98469.48;4061990;86;21163;-82
2020/12/08 01:28:17;;;;;;;56.80;27.13;;;;;;;0.00;87.30;98458.48;4093996;86;21772;-81
2020/12/08 01:34:20;;;;;;;56.83;26.97;;;;;;;-0.05;87.41;98462.11;4100138;85;21845;-81
2020/12/08 01:40:21;;;;;;;58.28;27.82;;;;;;;-0.04;87.45;98443.53;4104264;86;21195;-82
2020/12/08 01:46:27;;;;;;;58.40;26.57;;;;;;;-0.05;87.51;98439.23;4096834;85;21208;-82
2020/12/08 01:52:31;;;;;;;53.23;25.88;;;;;;;-0.07;87.59;98449.55;4089834;86;21202;-81
2020/12/08 01:58:33;;;;;;;53.37;26.30;;;;;;;-0.05;87.74;98457.30;4099686;86;21359;-82
2020/12/08 02:04:36;;;;;;;51.17;25.83;;;;;;;-0.05;87.61;98459.99;4098576;85;21231;-81
2020/12/08 02:10:39;;;;;;;52.50;25.02;;;;;;;-0.05;87.67;98457.30;4091546;86;21210;-81
2020/12/08 02:16:41;;;;;;;52.50;23.85;;;;;;;-0.06;87.65;98458.39;4012587;88;21339;-81
2020/12/08 02:22:43;;;;;;;49.60;23.50;;;;;;;-0.09;87.64;98466.56;4087625;86;21182;-82
2020/12/08 02:28:45;;;;;;;52.43;23.90;;;;;;;-0.07;87.71;98464.35;4093359;86;21775;-81
2020/12/08 02:34:47;;;;;;;49.03;23.32;;;;;;;-0.13;87.66;98475.59;4013669;88;21218;-82
2020/12/08 02:40:50;;;;;;;48.20;23.07;;;;;;;-0.14;87.75;98465.91;3919222;89;21775;-82
2020/12/08 02:46:52;;;;;;;55.77;24.53;;;;;;;-0.17;87.75;98470.05;4096246;86;21647;-82
2020/12/08 02:52:54;;;;;;;46.60;22.40;;;;;;;-0.16;87.76;98467.58;4098948;85;21614;-82
2020/12/08 02:58:55;;;;;;;55.30;23.93;;;;;;;-0.16;87.91;98459.50;4094691;86;21199;-82
2020/12/08 03:04:57;;;;;;;48.43;22.50;;;;;;;-0.18;87.85;98471.70;4056421;86;21195;-81
2020/12/08 03:11:00;;;;;;;48.07;21.87;;;;;;;-0.18;87.87;98467.67;4071505;86;21250;-81
2020/12/08 03:17:04;;;;;;;43.98;21.48;;;;;;;-0.21;87.86;98471.80;4121769;85;21417;-82
2020/12/08 03:23:06;;;;;;;46.40;22.77;;;;;;;-0.22;87.92;98472.89;4047966;86;21767;-81
2020/12/08 03:29:09;;;;;;;47.65;21.70;;;;;;;-0.24;88.08;98471.09;4059434;86;21198;-82
2020/12/08 03:35:11;;;;;;;47.87;22.20;;;;;;;-0.29;88.06;98476.63;4073302;86;21704;-82
2020/12/08 03:41:24;;;;;;;41.33;19.73;;;;;;;-0.32;88.07;98479.14;4076373;86;21207;-81
2020/12/08 03:47:27;;;;;;;46.93;22.10;;;;;;;-0.31;88.24;98467.27;4073702;86;21170;-81
2020/12/08 03:53:29;;;;;;;45.10;20.35;;;;;;;-0.39;88.25;98462.13;4094870;85;21675;-81
2020/12/08 03:59:32;;;;;;;42.35;19.27;;;;;;;-0.40;88.13;98469.17;4071005;86;21239;-82
2020/12/08 04:05:35;;;;;;;44.70;20.43;;;;;;;-0.42;88.18;98487.52;4097125;85;21683;-81
2020/12/08 04:11:37;;;;;;;37.87;20.17;;;;;;;-0.42;88.20;98488.31;4089121;85;32967;-82
2020/12/08 04:17:39;;;;;;;51.60;21.37;;;;;;;-0.48;88.25;98496.30;4080249;86;21162;-80
2020/12/08 04:23:41;;;;;;;43.27;20.77;;;;;;;-0.48;88.33;98499.53;4081565;86;21940;-79
2020/12/08 04:29:44;;;;;;;45.53;22.10;;;;;;;-0.52;88.24;98498.59;4071943;86;21197;-79
2020/12/08 04:35:45;;;;;;;50.73;23.40;;;;;;;-0.55;88.24;98482.52;4105337;85;21190;-79
2020/12/08 04:41:47;;;;;;;39.45;19.42;;;;;;;-0.56;88.29;98498.96;4106545;85;21493;-80
2020/12/08 04:47:49;;;;;;;48.42;20.48;;;;;;;-0.60;88.20;98510.92;4031490;87;21642;-79
2020/12/08 04:53:54;;;;;;;45.83;22.73;;;;;;;-0.54;88.29;98524.99;4026563;87;21215;-81
2020/12/08 05:00:09;;;;;;;45.57;20.17;;;;;;;-0.63;88.19;98512.09;4026433;87;21217;-80
2020/12/08 05:06:15;;;;;;;44.73;20.87;;;;;;;-0.66;88.37;98500.63;4022894;87;21355;-80
2020/12/08 05:12:23;;;;;;;41.55;19.23;;;;;;;-0.70;88.28;98509.06;4023432;87;21927;-80
2020/12/08 05:18:25;;;;;;;43.73;20.13;;;;;;;-0.75;88.21;98495.79;4024765;87;21168;-80
2020/12/08 05:24:32;;;;;;;44.87;19.33;;;;;;;-0.76;88.25;98499.02;4022519;87;21228;-81
2020/12/08 05:30:39;;;;;;;37.87;18.53;;;;;;;-0.76;88.23;98517.03;4019924;87;21949;-81
2020/12/08 05:36:44;;;;;;;44.40;20.53;;;;;;;-0.79;88.11;98524.38;4024934;87;21218;-81
2020/12/08 05:42:48;;;;;;;44.17;20.20;;;;;;;-0.81;88.12;98528.72;4024285;87;21221;-81
2020/12/08 05:48:52;;;;;;;39.67;18.57;;;;;;;-0.84;88.12;98523.17;4023609;87;21220;-80
2020/12/08 05:55:08;;;;;;;40.90;19.67;;;;;;;-0.90;88.09;98541.89;4019075;87;21262;-80
2020/12/08 06:01:09;;;;;;;41.43;19.60;;;;;;;-0.87;88.12;98548.78;4020356;87;21229;-81
2020/12/08 06:07:10;;;;;;;51.87;22.90;;;;;;;-0.89;88.09;98550.21;4022729;87;21649;-81
2020/12/08 06:13:31;;;;;;;56.27;23.13;;;;;;;-0.95;88.11;98550.08;4022648;87;21228;-81
2020/12/08 06:19:35;;;;;;;47.83;21.03;;;;;;;-0.97;88.14;98554.42;4020134;87;21223;-81
2020/12/08 06:25:36;;;;;;;62.07;25.93;;;;;;;-0.96;88.22;98560.60;4022722;87;21681;-81
2020/12/08 06:31:49;;;;;;;54.90;23.03;;;;;;;-1.00;88.05;98554.28;4001645;87;21308;-81
2020/12/08 06:37:55;;;;;;;49.80;21.27;;;;;;;-1.02;88.13;98557.81;3981764;88;21173;-80
2020/12/08 06:43:58;;;;;;;50.77;21.00;;;;;;;-1.03;88.13;98560.23;3982226;88;21650;-81
2020/12/08 06:49:59;;;;;;;48.47;21.80;;;;;;;-1.05;88.05;98572.64;3980931;88;21335;-81
2020/12/08 06:56:00;;;;;;;46.07;22.20;;;;;;;-1.02;88.23;98581.99;3982122;88;21189;-81
2020/12/08 07:02:02;;;;;;;52.33;24.00;;;;;;;-0.99;88.17;98588.89;3982822;88;21963;-82
2020/12/08 07:08:06;;;;;;;48.13;20.27;;;;;;;-0.95;88.26;98589.04;3982194;88;21212;-81
2020/12/08 07:14:08;;;;;;;36.93;19.67;;;;;;;-0.93;88.19;98571.53;3982807;88;21344;-82
2020/12/08 07:20:10;;;;;;;46.97;21.27;;;;;;;-0.90;88.29;98564.19;3981987;88;21757;-81
2020/12/08 07:26:14;;;;;;;43.70;21.03;;;;;;;-0.86;88.25;98580.48;3982299;88;21185;-81
2020/12/08 07:32:21;;;;;;;42.73;21.27;;;;;;;-0.81;88.39;98578.98;4006271;87;21244;-82
2020/12/08 07:38:23;;;;;;;46.50;20.97;;;;;;;-0.71;88.56;98601.02;4021220;87;21185;-81
2020/12/08 07:44:24;;;;;;;45.73;22.23;;;;;;;-0.58;88.31;98589.34;4023616;87;21656;-82
2020/12/08 07:50:32;;;;;;;44.70;20.67;;;;;;;-0.54;88.37;98594.89;4022671;87;21331;-82
2020/12/08 07:56:36;;;;;;;47.30;21.90;;;;;;;-0.52;88.43;98612.28;4024807;87;21852;-81
2020/12/08 08:02:37;;;;;;;44.13;22.73;;;;;;;-0.50;88.19;98613.34;4023641;87;21209;-81
2020/12/08 08:08:38;;;;;;;47.70;23.47;;;;;;;-0.50;88.25;98598.56;4021516;87;21176;-81
2020/12/08 08:14:40;;;;;;;43.50;20.93;;;;;;;-0.45;88.36;98604.57;4023153;87;21173;-81
2020/12/08 08:20:42;;;;;;;47.33;21.67;;;;;;;-0.36;88.54;98612.10;4022584;87;21149;-81
2020/12/08 08:26:43;;;;;;;47.77;22.80;;;;;;;-0.27;88.31;98612.91;4022287;87;21201;-82
2020/12/08 08:32:45;;;;;;;45.57;22.50;;;;;;;-0.25;88.34;98609.36;4025340;87;21213;-81
2020/12/08 08:38:46;;;;;;;48.10;22.90;;;;;;;-0.19;88.36;98619.44;4019934;87;21210;-81
2020/12/08 08:44:48;;;;;;;45.77;23.07;;;;;;;-0.18;88.29;98627.19;4020524;87;21206;-81
2020/12/08 08:50:50;;;;;;;43.27;21.83;;;;;;;-0.13;88.35;98624.91;4021688;87;21383;-81
2020/12/08 08:56:55;;;;;;;45.80;21.47;;;;;;;-0.08;88.23;98640.33;4023460;87;21204;-82
2020/12/08 09:02:58;;;;;;;49.48;24.30;;;;;;;-0.01;88.36;98642.02;4024285;87;21294;-82
2020/12/08 09:09:00;;;;;;;51.93;23.33;;;;;;;0.07;88.19;98640.98;4018919;87;21233;-82
2020/12/08 09:15:04;;;;;;;53.43;24.60;;;;;;;0.07;88.26;98627.53;4022969;87;21200;-82
2020/12/08 09:21:05;;;;;;;48.30;22.70;;;;;;;0.06;88.36;98629.45;4022797;86;21172;-82
2020/12/08 09:27:06;;;;;;;47.65;23.47;;;;;;;0.10;88.22;98632.27;4025542;87;21180;-82
2020/12/08 09:33:08;;;;;;;51.15;24.43;;;;;;;0.20;88.42;98644.09;3998119;87;21323;-82
2020/12/08 09:39:14;;;;;;;42.73;22.57;;;;;;;0.26;88.31;98644.17;3983276;88;21303;-82
2020/12/08 09:45:16;;;;;;;47.10;24.02;;;;;;;0.38;88.28;98642.98;3984291;88;21836;-82
2020/12/08 09:51:17;;;;;;;56.40;25.60;;;;;;;0.41;88.03;98651.22;3985575;88;21245;-82
2020/12/08 09:57:19;;;;;;;45.90;22.35;;;;;;;0.46;88.15;98651.07;3981935;88;21375;-82
2020/12/08 10:03:20;;;;;;;53.08;25.65;;;;;;;0.55;88.08;98641.66;3982280;88;21368;-82
2020/12/08 10:09:22;;;;;;;49.23;24.35;;;;;;;0.55;88.08;98641.66;3981106;88;21178;-82
2020/12/08 10:15:23;;;;;;;52.65;25.08;;;;;;;0.58;88.22;98630.25;3983902;88;21237;-82
2020/12/08 10:21:25;;;;;;;54.42;23.98;;;;;;;0.67;88.23;98638.55;3988967;88;21364;-82
2020/12/08 10:27:27;;;;;;;48.85;23.83;;;;;;;0.76;88.09;98643.92;3991803;88;21202;-83
2020/12/08 10:33:28;;;;;;;51.85;25.10;;;;;;;0.78;88.00;98633.08;3982040;88;21213;-82
2020/12/08 10:39:30;;;;;;;56.60;27.10;;;;;;;0.78;88.00;98633.08;3977934;88;21240;-82
2020/12/08 10:45:31;;;;;;;47.27;24.12;;;;;;;0.75;88.18;98628.87;3993538;88;21703;-82
2020/12/08 10:51:33;;;;;;;56.35;26.55;;;;;;;0.86;87.88;98632.82;3993955;88;21385;-82
2020/12/08 10:57:34;;;;;;;50.20;24.45;;;;;;;0.90;87.94;98632.41;3999986;88;21218;-82
2020/12/08 11:03:36;;;;;;;46.20;23.87;;;;;;;0.78;88.06;98616.91;3995878;88;21229;-82
2020/12/08 11:09:37;;;;;;;56.53;26.50;;;;;;;0.78;88.06;98616.91;3993509;88;21308;-82
2020/12/08 11:15:38;;;;;;;51.85;24.00;;;;;;;1.00;88.16;98640.16;4029457;87;21217;-82
2020/12/08 11:21:41;;;;;;;59.60;28.80;;;;;;;1.00;88.16;98601.08;4024632;87;21204;-82
2020/12/08 11:27:43;;;;;;;49.73;24.23;;;;;;;1.06;87.81;98610.57;4021002;87;21605;-82
2020/12/08 11:34:23;;;;;;;57.13;27.65;;;;;;;1.23;87.74;98634.77;4545254;76;23494;-82
2020/12/08 11:40:24;;;;;;;54.23;26.57;;;;;;;1.25;87.69;98651.43;4533980;76;21566;-82
2020/12/08 11:46:26;;;;;;;48.92;23.77;;;;;;;1.31;87.62;98638.80;4536063;76;21121;-82
2020/12/08 11:52:27;;;;;;;49.88;24.72;;;;;;;1.29;87.46;98638.88;4544413;76;21140;-82
2020/12/08 11:58:29;;;;;;;47.62;24.00;;;;;;;1.33;87.69;98637.13;4540473;76;21148;-83
2020/12/08 12:04:30;;;;;;;55.40;26.65;;;;;;;1.47;87.53;98624.22;4543828;76;21154;-83
2020/12/08 12:10:32;;;;;;;48.28;24.60;;;;;;;1.60;87.54;98635.33;4533537;76;21130;-82
2020/12/08 12:16:34;;;;;;;48.95;26.68;;;;;;;1.70;87.18;98616.09;4541127;76;21147;-82
2020/12/08 12:22:36;;;;;;;50.92;25.85;;;;;;;1.74;87.16;98612.95;4549293;76;21686;-82
2020/12/08 12:28:38;;;;;;;55.40;24.57;;;;;;;1.80;87.12;98604.13;4538238;76;21571;-84
2020/12/08 12:34:39;;;;;;;50.08;24.60;;;;;;;1.94;87.00;98610.88;4540126;76;21617;-83
2020/12/08 12:40:41;;;;;;;51.42;24.87;;;;;;;2.05;86.87;98596.42;4536196;76;21187;-82
2020/12/08 12:46:42;;;;;;;45.28;22.67;;;;;;;2.00;86.25;98585.27;4436827;76;22363;-82
2020/12/08 12:52:44;;;;;;;46.05;23.57;;;;;;;1.97;86.09;98585.92;4365046;80;21183;-83
2020/12/08 12:58:46;;;;;;;57.55;26.05;;;;;;;1.97;86.10;98602.67;4339912;80;21159;-82
2020/12/08 13:04:47;;;;;;;50.58;24.55;;;;;;;1.83;86.02;98606.97;4369188;80;21168;-82
2020/12/08 13:10:49;;;;;;;44.23;23.00;;;;;;;1.69;86.07;98613.16;4373522;80;21456;-82
2020/12/08 13:16:50;;;;;;;48.80;23.25;;;;;;;1.69;86.07;98613.16;4374447;80;21211;-82
2020/12/08 13:22:52;;;;;;;46.45;25.25;;;;;;;1.66;85.95;98624.58;4354547;80;21227;-82
2020/12/08 13:29:00;;;;;;;48.73;24.23;;;;;;;1.57;86.16;98619.25;4372919;80;21673;-83
2020/12/08 13:35:03;;;;;;;54.95;25.62;;;;;;;1.57;86.16;98619.25;4341076;81;22303;-82
2020/12/08 13:41:06;;;;;;;46.95;23.65;;;;;;;1.55;85.89;98626.09;4323786;80;21752;-82
2020/12/08 14:04:59;;;;;;;61.57;28.17;;;;;;;1.17;85.74;98643.61;4394375;79;22325;-82
2020/12/08 14:11:01;;;;;;;58.33;26.50;;;;;;;0.99;85.78;98646.09;4189647;83;21591;-82
2020/12/08 14:17:02;;;;;;;62.63;27.57;;;;;;;0.94;85.71;98643.56;4234722;82;22393;-83
2020/12/08 14:23:04;;;;;;;54.58;27.25;;;;;;;0.90;85.67;98639.14;4186488;83;21652;-82
2020/12/08 14:29:06;;;;;;;85.87;37.70;;;;;;;0.81;85.59;98651.84;4185521;83;21339;-81
2020/12/08 14:35:10;;;;;;;57.93;27.27;;;;;;;0.53;85.49;98651.95;4192929;83;21185;-81
2020/12/08 14:41:12;;;;;;;57.57;27.50;;;;;;;0.53;85.49;98651.95;4192111;84;21870;-81
2020/12/08 14:47:13;;;;;;;50.85;25.50;;;;;;;0.56;85.45;98680.39;4188142;83;21583;-82
2020/12/08 14:53:15;;;;;;;51.70;25.92;;;;;;;0.51;85.64;98688.63;4193616;83;21184;-81
2020/12/08 14:59:17;;;;;;;55.00;25.23;;;;;;;0.46;85.51;98686.08;4259172;82;21204;-81
2020/12/08 15:05:18;;;;;;;49.48;24.30;;;;;;;0.41;85.50;98694.89;4108927;83;25189;-81
2020/12/08 15:11:23;;;;;;;51.42;27.05;;;;;;;0.41;85.62;98712.39;4012375;88;21251;-82
2020/12/08 15:17:23;;;;;;;56.80;26.60;;;;;;;0.26;85.29;98704.75;4018768;88;21188;-81
2020/12/08 15:23:25;;;;;;;52.40;26.02;;;;;;;0.13;85.50;98709.16;4012895;88;21179;-81
2020/12/08 15:29:26;;;;;;;54.18;27.02;;;;;;;0.06;85.49;98713.42;4025504;86;21164;-81
2020/12/08 15:35:28;;;;;;;51.77;27.93;;;;;;;0.02;85.46;98721.31;4015133;87;21380;-81
2020/12/08 15:41:29;;;;;;;60.53;30.00;;;;;;;-0.10;85.41;98717.09;4018490;87;21211;-81
2020/12/08 15:47:31;;;;;;;57.53;27.95;;;;;;;-0.19;85.43;98724.35;4015064;87;21247;-81
2020/12/08 15:53:32;;;;;;;57.80;28.23;;;;;;;-0.20;85.63;98740.23;4014016;87;21258;-81
2020/12/08 15:59:34;;;;;;;61.17;29.87;;;;;;;-0.25;85.35;98745.20;4025487;87;21389;-82
2020/12/08 16:05:35;;;;;;;52.33;28.00;;;;;;;-0.36;85.37;98733.13;4016673;87;21254;-82
2020/12/08 16:11:37;;;;;;;61.43;30.23;;;;;;;-0.43;85.33;98748.93;4016786;87;21637;-81
2020/12/08 16:17:40;;;;;;;69.57;32.77;;;;;;;-0.57;85.31;98740.16;4014223;87;21195;-81
2020/12/08 16:23:44;;;;;;;65.53;33.03;;;;;;;-0.70;85.34;98732.96;4023803;87;21259;-81
2020/12/08 16:29:45;;;;;;;67.40;31.73;;;;;;;-0.77;85.56;98739.34;4026592;86;21679;-81
2020/12/08 16:35:47;;;;;;;64.77;30.33;;;;;;;-0.78;85.59;98740.95;4019401;86;21242;-80
2020/12/08 16:41:48;;;;;;;64.03;31.80;;;;;;;-0.79;85.56;98747.45;4020132;86;21898;-81
2020/12/08 16:47:50;;;;;;;68.20;33.43;;;;;;;-0.85;85.48;98745.45;4022150;86;21603;-81
2020/12/08 16:53:51;;;;;;;68.27;34.00;;;;;;;-0.89;85.69;98753.09;4058515;87;21177;-80
2020/12/08 16:59:54;;;;;;;81.90;42.47;;;;;;;-0.91;85.65;98752.59;4072522;87;21244;-80
2020/12/08 17:05:56;;;;;;;74.23;34.23;;;;;;;-1.00;85.56;98750.41;4168673;85;21901;-81
2020/12/08 17:11:57;;;;;;;67.63;31.90;;;;;;;-1.10;85.70;98749.28;4161959;85;21163;-81
2020/12/08 17:17:59;;;;;;;62.33;30.57;;;;;;;-1.15;85.76;98743.48;4162111;84;21336;-80
2020/12/08 17:24:00;;;;;;;60.77;30.10;;;;;;;-1.16;85.83;98741.88;4148198;84;21608;-81
2020/12/08 17:30:09;;;;;;;67.13;31.50;;;;;;;-1.14;86.03;98749.09;4130732;84;21797;-80
2020/12/08 17:36:10;;;;;;;73.77;34.80;;;;;;;-1.12;85.95;98744.22;4117998;84;21338;-81
2020/12/08 17:42:14;;;;;;;65.57;32.83;;;;;;;-1.10;86.04;98751.44;4124793;85;21832;-82
2020/12/08 17:48:15;;;;;;;73.43;34.50;;;;;;;-1.12;85.93;98751.47;4151732;84;21602;-81
2020/12/08 17:54:17;;;;;;;77.47;36.77;;;;;;;-1.19;85.78;98753.23;4148327;84;21219;-81
2020/12/08 18:06:32;;;;;;;72.27;32.93;;;;;;;-1.28;85.92;98765.80;4495075;77;23295;-82
2020/12/08 18:12:35;;;;;;;69.87;32.47;;;;;;;-1.41;85.99;98757.80;4419440;78;21169;-81
2020/12/08 18:18:37;;;;;;;76.93;33.97;;;;;;;-1.44;86.09;98759.18;4444487;78;21278;-82
2020/12/08 18:24:38;;;;;;;81.83;35.20;;;;;;;-1.47;86.09;98761.13;4437596;78;21221;-81
2020/12/08 18:30:40;;;;;;;71.53;33.70;;;;;;;-1.48;86.02;98761.43;4449656;78;21189;-81
2020/12/08 18:36:41;;;;;;;78.00;34.30;;;;;;;-1.57;85.95;98754.09;4273879;81;21212;-81
2020/12/08 18:42:55;;;;;;;84.90;35.60;;;;;;;-1.63;86.02;98753.19;4318449;81;21860;-81
2020/12/08 18:48:56;;;;;;;87.17;38.37;;;;;;;-1.66;86.22;98767.98;4297679;81;21172;-81
2020/12/08 18:54:57;;;;;;;76.33;36.93;;;;;;;-1.69;86.16;98759.19;4307229;81;21206;-81
2020/12/08 19:00:59;;;;;;;82.17;36.03;;;;;;;-1.71;86.25;98753.32;4193599;81;10000264;-81
2020/12/08 19:07:00;;;;;;;78.43;35.43;;;;;;;-1.74;86.29;98754.49;4309187;81;21223;-81
2020/12/08 19:13:02;;;;;;;83.80;38.20;;;;;;;-1.79;86.26;98747.89;4349460;81;21199;-81
2020/12/08 19:19:03;;;;;;;108.67;47.13;;;;;;;-1.86;86.30;98736.75;4328353;81;21204;-81
2020/12/08 19:25:05;;;;;;;99.90;41.20;;;;;;;-1.89;86.42;98741.38;4336937;80;21341;-81
2020/12/08 19:31:07;;;;;;;93.37;39.37;;;;;;;-1.94;86.52;98745.50;4290225;81;21743;-81
2020/12/08 19:37:09;;;;;;;96.57;43.27;;;;;;;-1.94;86.62;98732.09;4268824;81;21213;-80
2020/12/08 19:43:12;;;;;;;82.93;37.03;;;;;;;-1.96;86.70;98741.00;4341246;81;21149;-81
2020/12/08 19:49:13;;;;;;;87.37;37.80;;;;;;;-1.96;86.89;98745.02;4333318;81;21140;-81
2020/12/08 19:55:15;;;;;;;92.40;39.60;;;;;;;-1.94;86.99;98749.52;4342869;81;21181;-81
2020/12/08 20:01:21;;;;;;;84.87;38.33;;;;;;;-1.89;87.09;98754.25;4200286;81;10000212;-82
2020/12/08 20:07:22;;;;;;;92.95;40.83;;;;;;;-1.87;86.96;98747.25;4335292;81;21630;-81
2020/12/08 20:13:24;;;;;;;90.77;40.33;;;;;;;-1.84;87.19;98747.98;4352978;81;21493;-82
2020/12/08 20:19:25;;;;;;;97.67;44.10;;;;;;;-1.77;87.35;98744.36;4345660;81;21650;-81
2020/12/08 20:25:27;;;;;;;92.17;41.67;;;;;;;-1.67;87.48;98757.01;4326151;81;21351;-82
2020/12/08 20:31:28;;;;;;;95.87;42.67;;;;;;;-1.58;87.60;98757.64;4330180;80;21176;-82
2020/12/08 20:37:30;;;;;;;98.73;43.03;;;;;;;-1.51;87.67;98763.38;4283839;81;21225;-81
2020/12/08 20:43:31;;;;;;;90.90;40.90;;;;;;;-1.46;87.72;98757.91;4335001;81;21205;-81
2020/12/08 20:49:33;;;;;;;98.30;43.30;;;;;;;-1.36;87.75;98763.06;4451345;78;21637;-81
2020/12/08 20:55:35;;;;;;;94.60;44.77;;;;;;;-1.27;87.94;98761.23;4432395;78;21181;-81
2020/12/08 21:01:37;;;;;;;105.13;45.83;;;;;;;-1.22;87.87;98763.25;4325437;78;10000465;-81
2020/12/08 21:07:40;;;;;;;96.80;44.43;;;;;;;-1.20;87.98;98769.12;4456553;78;21235;-81
2020/12/08 21:13:42;;;;;;;101.13;45.30;;;;;;;-1.21;88.08;98768.88;4463481;78;21192;-81
2020/12/08 21:19:46;;;;;;;100.57;45.67;;;;;;;-1.17;88.22;98771.73;4461148;78;22089;-82
2020/12/08 21:25:48;;;;;;;107.70;44.93;;;;;;;-1.16;88.33;98768.74;4465600;78;21789;-81
2020/12/08 21:31:50;;;;;;;100.27;43.37;;;;;;;-1.11;88.42;98759.80;4313016;81;21216;-82
2020/12/08 21:37:51;;;;;;;93.37;42.53;;;;;;;-1.08;88.40;98758.62;4309340;81;21195;-82
2020/12/08 21:43:53;;;;;;;105.03;43.30;;;;;;;-1.11;88.43;98757.88;4324827;81;21169;-82
2020/12/08 21:50:03;;;;;;;97.13;44.87;;;;;;;-1.09;88.56;98766.98;4316847;81;21621;-81
2020/12/08 21:55:58;;;;;;;90.37;43.17;;;;;;;-1.09;88.78;98772.35;4322478;81;21767;-81
2020/12/08 22:01:59;;;;;;;98.77;41.70;;;;;;;-1.08;88.89;98772.05;4213920;81;9999851;-81
2020/12/08 22:08:00;;;;;;;102.47;43.63;;;;;;;-1.09;88.92;98769.13;4311927;81;21171;-81
2020/12/08 22:14:02;;;;;;;96.57;41.87;;;;;;;-1.06;88.96;98766.37;4449006;78;21275;-81
2020/12/08 22:20:07;;;;;;;100.73;43.13;;;;;;;-1.11;88.91;98757.88;4302562;81;21179;-80
2020/12/08 22:26:09;;;;;;;111.90;44.27;;;;;;;-1.08;89.05;98748.44;4309331;81;21722;-80
2020/12/08 22:32:10;;;;;;;99.37;42.97;;;;;;;-1.11;89.06;98749.83;4330292;81;21169;-80
2020/12/08 22:38:11;;;;;;;94.07;42.90;;;;;;;-1.11;89.18;98748.48;4317292;81;21410;-80
2020/12/08 22:44:13;;;;;;;99.20;42.20;;;;;;;-1.15;89.40;98752.89;4333580;81;21603;-80
2020/12/08 22:50:36;;;;;;;101.17;42.67;;;;;;;-1.14;89.44;98741.03;4347120;81;21181;-80
2020/12/08 22:56:37;;;;;;;95.00;40.07;;;;;;;-1.09;89.73;98746.30;4333283;80;21133;-80
2020/12/08 23:02:40;;;;;;;89.27;41.30;;;;;;;-1.08;89.76;98747.09;4256475;81;21355;-80
2020/12/08 23:08:42;;;;;;;93.53;40.93;;;;;;;-1.09;89.65;98736.89;4321737;81;21807;-80
2020/12/08 23:14:43;;;;;;;96.43;40.70;;;;;;;-1.09;89.73;98728.83;4321993;81;21161;-80
2020/12/08 23:20:45;;;;;;;96.77;40.97;;;;;;;-1.07;89.91;98725.30;4298436;81;21207;-80
2020/12/08 23:26:49;;;;;;;89.87;38.10;;;;;;;-1.05;89.98;98719.63;4294783;81;21137;-80
2020/12/08 23:32:51;;;;;;;91.57;40.23;;;;;;;-1.05;90.05;98717.70;4303515;81;21630;-80
2020/12/08 23:38:53;;;;;;;94.77;41.93;;;;;;;-1.05;90.17;98709.65;4307204;81;21824;-80
2020/12/08 23:44:55;;;;;;;88.07;39.50;;;;;;;-1.13;90.28;98713.09;4309611;81;21149;-80
2020/12/08 23:50:56;;;;;;;88.13;37.93;;;;;;;-1.10;90.50;98713.02;4295626;81;21193;-80
2020/12/08 23:56:58;;;;;;;86.63;37.00;;;;;;;-1.08;90.38;98723.69;4307380;81;21406;-80
